sensor_id;sensor_type;location;lat;lon;timestamp;temperature;humidity
17813;DHT22;9030;50.792;8.320;2024-02-21T00:02:19;6.40;99.90
17813;DHT22;9030;50.792;8.320;2024-02-21T00:04:47;6.40;99.90
17813;DHT22;9030;50.792;8.320;2024-02-21T00:07:14;6.40;99.90
17813;DHT22;9030;50.792;8.320;2024-02-21T00:09:40;6.40;99.90
17813;DHT22;9030;50.792;8.320;2024-02-21T00:12:07;6.40;99.90
17813;DHT22;9030;50.792;8.320;2024-02-21T00:14:34;6.40;99.90
17813;DHT22;9030;50.792;8.320;2024-02-21T00:17:01;6.40;99.90
17813;DHT22;9030;50.792;8.320;2024-02-21T00:19:27;6.40;99.90
17813;DHT22;9030;50.792;8.320;2024-02-21T00:21:55;6.40;99.90
17813;DHT22;9030;50.792;8.320;2024-02-21T00:24:22;6.50;99.90
17813;DHT22;9030;50.792;8.320;2024-02-21T00:26:48;6.50;99.90
17813;DHT22;9030;50.792;8.320;2024-02-21T00:29:15;6.50;99.90
17813;DHT22;9030;50.792;8.320;2024-02-21T00:31:42;6.50;99.90
17813;DHT22;9030;50.792;8.320;2024-02-21T00:34:10;6.50;99.90
17813;DHT22;9030;50.792;8.320;2024-02-21T00:36:38;6.50;99.90
17813;DHT22;9030;50.792;8.320;2024-02-21T00:39:06;6.60;99.90
17813;DHT22;9030;50.792;8.320;2024-02-21T00:41:32;6.60;99.90
17813;DHT22;9030;50.792;8.320;2024-02-21T00:43:59;6.60;99.90
17813;DHT22;9030;50.792;8.320;2024-02-21T00:46:26;6.60;99.90
17813;DHT22;9030;50.792;8.320;2024-02-21T00:48:52;6.60;99.90
17813;DHT22;9030;50.792;8.320;2024-02-21T00:51:19;6.60;99.90
17813;DHT22;9030;50.792;8.320;2024-02-21T00:53:46;6.50;99.90
17813;DHT22;9030;50.792;8.320;2024-02-21T00:56:14;6.50;99.90
17813;DHT22;9030;50.792;8.320;2024-02-21T00:58:40;6.50;99.90
17813;DHT22;9030;50.792;8.320;2024-02-21T01:01:07;6.50;99.90
17813;DHT22;9030;50.792;8.320;2024-02-21T01:03:34;6.60;99.90
17813;DHT22;9030;50.792;8.320;2024-02-21T01:06:00;6.60;99.90
17813;DHT22;9030;50.792;8.320;2024-02-21T01:08:27;6.60;99.90
17813;DHT22;9030;50.792;8.320;2024-02-21T01:10:53;6.50;99.90
17813;DHT22;9030;50.792;8.320;2024-02-21T01:13:21;6.50;99.90
17813;DHT22;9030;50.792;8.320;2024-02-21T01:15:48;6.50;99.90
17813;DHT22;9030;50.792;8.320;2024-02-21T01:18:15;6.50;99.90
17813;DHT22;9030;50.792;8.320;2024-02-21T01:20:41;6.50;99.90
17813;DHT22;9030;50.792;8.320;2024-02-21T01:23:08;6.60;99.90
17813;DHT22;9030;50.792;8.320;2024-02-21T01:25:34;6.60;99.90
17813;DHT22;9030;50.792;8.320;2024-02-21T01:28:01;6.50;99.90
17813;DHT22;9030;50.792;8.320;2024-02-21T01:30:29;6.60;99.90
17813;DHT22;9030;50.792;8.320;2024-02-21T01:32:56;6.50;99.90
17813;DHT22;9030;50.792;8.320;2024-02-21T01:35:22;6.50;99.90
17813;DHT22;9030;50.792;8.320;2024-02-21T01:37:49;6.50;99.90
17813;DHT22;9030;50.792;8.320;2024-02-21T01:40:17;6.60;99.90
17813;DHT22;9030;50.792;8.320;2024-02-21T01:42:44;6.50;99.90
17813;DHT22;9030;50.792;8.320;2024-02-21T01:45:10;6.60;99.90
17813;DHT22;9030;50.792;8.320;2024-02-21T01:47:38;6.60;99.90
17813;DHT22;9030;50.792;8.320;2024-02-21T01:50:06;6.60;99.90
17813;DHT22;9030;50.792;8.320;2024-02-21T01:52:34;6.50;99.90
17813;DHT22;9030;50.792;8.320;2024-02-21T01:55:01;6.60;99.90
17813;DHT22;9030;50.792;8.320;2024-02-21T01:57:28;6.60;99.90
17813;DHT22;9030;50.792;8.320;2024-02-21T01:59:55;6.60;99.90
17813;DHT22;9030;50.792;8.320;2024-02-21T02:02:21;6.50;99.90
17813;DHT22;9030;50.792;8.320;2024-02-21T02:04:50;6.50;99.90
17813;DHT22;9030;50.792;8.320;2024-02-21T02:07:18;6.50;99.90
17813;DHT22;9030;50.792;8.320;2024-02-21T02:09:44;6.50;99.90
17813;DHT22;9030;50.792;8.320;2024-02-21T02:12:11;6.60;99.90
17813;DHT22;9030;50.792;8.320;2024-02-21T02:14:38;6.50;99.90
17813;DHT22;9030;50.792;8.320;2024-02-21T02:17:04;6.60;99.90
17813;DHT22;9030;50.792;8.320;2024-02-21T02:19:31;6.60;99.90
17813;DHT22;9030;50.792;8.320;2024-02-21T02:22:09;6.60;99.90
17813;DHT22;9030;50.792;8.320;2024-02-21T02:24:37;6.60;99.90
17813;DHT22;9030;50.792;8.320;2024-02-21T02:27:04;6.60;99.90
17813;DHT22;9030;50.792;8.320;2024-02-21T02:29:32;6.60;99.90
17813;DHT22;9030;50.792;8.320;2024-02-21T02:31:58;6.60;99.90
17813;DHT22;9030;50.792;8.320;2024-02-21T02:34:25;6.60;99.90
17813;DHT22;9030;50.792;8.320;2024-02-21T02:36:52;6.60;99.90
17813;DHT22;9030;50.792;8.320;2024-02-21T02:39:20;6.60;99.90
17813;DHT22;9030;50.792;8.320;2024-02-21T02:41:48;6.60;99.90
17813;DHT22;9030;50.792;8.320;2024-02-21T02:44:14;6.60;99.90
17813;DHT22;9030;50.792;8.320;2024-02-21T02:46:41;6.50;99.90
17813;DHT22;9030;50.792;8.320;2024-02-21T02:49:08;6.60;99.90
17813;DHT22;9030;50.792;8.320;2024-02-21T02:51:35;6.50;99.90
17813;DHT22;9030;50.792;8.320;2024-02-21T02:54:02;6.60;99.90
17813;DHT22;9030;50.792;8.320;2024-02-21T02:56:28;6.50;99.90
17813;DHT22;9030;50.792;8.320;2024-02-21T02:58:56;6.60;99.90
17813;DHT22;9030;50.792;8.320;2024-02-21T03:01:23;6.50;99.90
17813;DHT22;9030;50.792;8.320;2024-02-21T03:03:50;6.50;99.90
17813;DHT22;9030;50.792;8.320;2024-02-21T03:06:16;6.50;99.90
17813;DHT22;9030;50.792;8.320;2024-02-21T03:08:43;6.50;99.90
17813;DHT22;9030;50.792;8.320;2024-02-21T03:11:09;6.50;99.90
17813;DHT22;9030;50.792;8.320;2024-02-21T03:13:37;6.50;99.90
17813;DHT22;9030;50.792;8.320;2024-02-21T03:16:05;6.40;99.90
17813;DHT22;9030;50.792;8.320;2024-02-21T03:18:32;6.50;99.90
17813;DHT22;9030;50.792;8.320;2024-02-21T03:20:58;6.50;99.90
17813;DHT22;9030;50.792;8.320;2024-02-21T03:23:25;6.50;99.90
17813;DHT22;9030;50.792;8.320;2024-02-21T03:25:52;6.50;99.90
17813;DHT22;9030;50.792;8.320;2024-02-21T03:28:18;6.40;99.90
17813;DHT22;9030;50.792;8.320;2024-02-21T03:30:45;6.40;99.90
17813;DHT22;9030;50.792;8.320;2024-02-21T03:33:13;6.40;99.90
17813;DHT22;9030;50.792;8.320;2024-02-21T03:35:39;6.40;99.90
17813;DHT22;9030;50.792;8.320;2024-02-21T03:38:06;6.40;99.90
17813;DHT22;9030;50.792;8.320;2024-02-21T03:40:33;6.40;99.90
17813;DHT22;9030;50.792;8.320;2024-02-21T03:42:59;6.40;99.90
17813;DHT22;9030;50.792;8.320;2024-02-21T03:45:26;6.30;99.90
17813;DHT22;9030;50.792;8.320;2024-02-21T03:47:52;6.30;99.90
17813;DHT22;9030;50.792;8.320;2024-02-21T03:50:20;6.40;99.90
17813;DHT22;9030;50.792;8.320;2024-02-21T03:52:47;6.40;99.90
17813;DHT22;9030;50.792;8.320;2024-02-21T03:55:14;6.30;99.90
17813;DHT22;9030;50.792;8.320;2024-02-21T03:57:41;6.30;99.90
17813;DHT22;9030;50.792;8.320;2024-02-21T04:00:08;6.30;99.90
17813;DHT22;9030;50.792;8.320;2024-02-21T04:02:37;6.30;99.90
17813;DHT22;9030;50.792;8.320;2024-02-21T04:05:04;6.40;99.90
17813;DHT22;9030;50.792;8.320;2024-02-21T04:07:32;6.40;99.90
17813;DHT22;9030;50.792;8.320;2024-02-21T04:09:59;6.30;99.90
17813;DHT22;9030;50.792;8.320;2024-02-21T04:12:26;6.30;99.90
17813;DHT22;9030;50.792;8.320;2024-02-21T04:14:52;6.30;99.90
17813;DHT22;9030;50.792;8.320;2024-02-21T04:17:19;6.30;99.90
17813;DHT22;9030;50.792;8.320;2024-02-21T04:19:46;6.30;99.90
17813;DHT22;9030;50.792;8.320;2024-02-21T04:22:12;6.30;99.90
17813;DHT22;9030;50.792;8.320;2024-02-21T04:24:40;6.30;99.90
17813;DHT22;9030;50.792;8.320;2024-02-21T04:27:07;6.30;99.90
17813;DHT22;9030;50.792;8.320;2024-02-21T04:29:34;6.30;99.90
17813;DHT22;9030;50.792;8.320;2024-02-21T04:32:01;6.30;99.90
17813;DHT22;9030;50.792;8.320;2024-02-21T04:34:29;6.30;99.90
17813;DHT22;9030;50.792;8.320;2024-02-21T04:36:56;6.20;99.90
17813;DHT22;9030;50.792;8.320;2024-02-21T04:39:22;6.30;99.90
17813;DHT22;9030;50.792;8.320;2024-02-21T04:41:50;6.30;99.90
17813;DHT22;9030;50.792;8.320;2024-02-21T04:44:17;6.20;99.90
17813;DHT22;9030;50.792;8.320;2024-02-21T04:46:47;6.30;99.90
17813;DHT22;9030;50.792;8.320;2024-02-21T04:49:13;6.20;99.90
17813;DHT22;9030;50.792;8.320;2024-02-21T04:51:41;6.20;99.90
17813;DHT22;9030;50.792;8.320;2024-02-21T04:54:07;6.20;99.90
17813;DHT22;9030;50.792;8.320;2024-02-21T04:56:34;6.20;99.90
17813;DHT22;9030;50.792;8.320;2024-02-21T04:59:02;6.20;99.90
17813;DHT22;9030;50.792;8.320;2024-02-21T05:01:29;6.20;99.90
17813;DHT22;9030;50.792;8.320;2024-02-21T05:03:56;6.20;99.90
17813;DHT22;9030;50.792;8.320;2024-02-21T05:06:23;6.20;99.90
17813;DHT22;9030;50.792;8.320;2024-02-21T05:08:50;6.20;99.90
17813;DHT22;9030;50.792;8.320;2024-02-21T05:11:16;6.20;99.90
17813;DHT22;9030;50.792;8.320;2024-02-21T05:13:43;6.20;99.90
17813;DHT22;9030;50.792;8.320;2024-02-21T05:16:11;6.10;99.90
17813;DHT22;9030;50.792;8.320;2024-02-21T05:18:37;6.20;99.90
17813;DHT22;9030;50.792;8.320;2024-02-21T05:21:04;6.20;99.90
17813;DHT22;9030;50.792;8.320;2024-02-21T05:23:31;6.20;99.90
17813;DHT22;9030;50.792;8.320;2024-02-21T05:25:57;6.20;99.90
17813;DHT22;9030;50.792;8.320;2024-02-21T05:28:23;6.30;99.90
17813;DHT22;9030;50.792;8.320;2024-02-21T05:30:50;6.20;99.90
17813;DHT22;9030;50.792;8.320;2024-02-21T05:33:18;6.30;99.90
17813;DHT22;9030;50.792;8.320;2024-02-21T05:35:46;6.20;99.90
17813;DHT22;9030;50.792;8.320;2024-02-21T05:38:13;6.20;99.90
17813;DHT22;9030;50.792;8.320;2024-02-21T05:40:41;6.30;99.90
17813;DHT22;9030;50.792;8.320;2024-02-21T05:43:08;6.20;99.90
17813;DHT22;9030;50.792;8.320;2024-02-21T05:45:35;6.20;99.90
17813;DHT22;9030;50.792;8.320;2024-02-21T05:48:02;6.20;99.90
17813;DHT22;9030;50.792;8.320;2024-02-21T05:50:30;6.20;99.90
17813;DHT22;9030;50.792;8.320;2024-02-21T05:52:58;6.20;99.90
17813;DHT22;9030;50.792;8.320;2024-02-21T05:55:25;6.20;99.90
17813;DHT22;9030;50.792;8.320;2024-02-21T05:57:53;6.20;99.90
17813;DHT22;9030;50.792;8.320;2024-02-21T06:00:20;6.20;99.90
17813;DHT22;9030;50.792;8.320;2024-02-21T06:02:47;6.20;99.90
17813;DHT22;9030;50.792;8.320;2024-02-21T06:05:14;6.20;99.90
17813;DHT22;9030;50.792;8.320;2024-02-21T06:07:41;6.20;99.90
17813;DHT22;9030;50.792;8.320;2024-02-21T06:10:08;6.20;99.90
17813;DHT22;9030;50.792;8.320;2024-02-21T06:12:35;6.20;99.90
17813;DHT22;9030;50.792;8.320;2024-02-21T06:15:02;6.20;99.90
17813;DHT22;9030;50.792;8.320;2024-02-21T06:17:29;6.20;99.90
17813;DHT22;9030;50.792;8.320;2024-02-21T06:19:55;6.20;99.90
17813;DHT22;9030;50.792;8.320;2024-02-21T06:22:22;6.20;99.90
17813;DHT22;9030;50.792;8.320;2024-02-21T06:24:50;6.20;99.90
17813;DHT22;9030;50.792;8.320;2024-02-21T06:27:18;6.20;99.90
17813;DHT22;9030;50.792;8.320;2024-02-21T06:29:45;6.20;99.90
17813;DHT22;9030;50.792;8.320;2024-02-21T06:32:11;6.20;99.90
17813;DHT22;9030;50.792;8.320;2024-02-21T06:34:38;6.20;99.90
17813;DHT22;9030;50.792;8.320;2024-02-21T06:37:05;6.20;99.90
17813;DHT22;9030;50.792;8.320;2024-02-21T06:39:31;6.20;99.90
17813;DHT22;9030;50.792;8.320;2024-02-21T06:41:59;6.20;99.90
17813;DHT22;9030;50.792;8.320;2024-02-21T06:44:26;6.10;99.90
17813;DHT22;9030;50.792;8.320;2024-02-21T06:46:53;6.20;99.90
17813;DHT22;9030;50.792;8.320;2024-02-21T06:49:20;6.20;99.90
17813;DHT22;9030;50.792;8.320;2024-02-21T06:51:47;6.20;99.90
17813;DHT22;9030;50.792;8.320;2024-02-21T06:54:13;6.20;99.90
17813;DHT22;9030;50.792;8.320;2024-02-21T06:56:40;6.20;99.90
17813;DHT22;9030;50.792;8.320;2024-02-21T06:59:08;6.20;99.90
17813;DHT22;9030;50.792;8.320;2024-02-21T07:01:35;6.20;99.90
17813;DHT22;9030;50.792;8.320;2024-02-21T07:04:02;6.20;99.90
17813;DHT22;9030;50.792;8.320;2024-02-21T07:06:29;6.20;99.90
17813;DHT22;9030;50.792;8.320;2024-02-21T07:08:56;6.20;99.90
17813;DHT22;9030;50.792;8.320;2024-02-21T07:11:23;6.20;99.90
17813;DHT22;9030;50.792;8.320;2024-02-21T07:13:50;6.20;99.90
17813;DHT22;9030;50.792;8.320;2024-02-21T07:16:18;6.30;99.90
17813;DHT22;9030;50.792;8.320;2024-02-21T07:18:44;6.30;99.90
17813;DHT22;9030;50.792;8.320;2024-02-21T07:21:11;6.30;99.90
17813;DHT22;9030;50.792;8.320;2024-02-21T07:23:40;6.30;99.90
17813;DHT22;9030;50.792;8.320;2024-02-21T07:26:07;6.30;99.90
17813;DHT22;9030;50.792;8.320;2024-02-21T07:28:34;6.30;99.90
17813;DHT22;9030;50.792;8.320;2024-02-21T07:31:00;6.30;99.90
17813;DHT22;9030;50.792;8.320;2024-02-21T07:33:28;6.30;99.90
17813;DHT22;9030;50.792;8.320;2024-02-21T07:35:56;6.40;99.90
17813;DHT22;9030;50.792;8.320;2024-02-21T07:38:23;6.30;99.90
17813;DHT22;9030;50.792;8.320;2024-02-21T07:40:49;6.30;99.90
17813;DHT22;9030;50.792;8.320;2024-02-21T07:43:16;6.30;99.90
17813;DHT22;9030;50.792;8.320;2024-02-21T07:45:42;6.30;99.90
17813;DHT22;9030;50.792;8.320;2024-02-21T07:48:08;6.30;99.90
17813;DHT22;9030;50.792;8.320;2024-02-21T07:50:36;6.30;99.90
17813;DHT22;9030;50.792;8.320;2024-02-21T07:53:03;6.40;99.90
17813;DHT22;9030;50.792;8.320;2024-02-21T07:55:30;6.40;99.90
17813;DHT22;9030;50.792;8.320;2024-02-21T07:57:56;6.40;99.90
17813;DHT22;9030;50.792;8.320;2024-02-21T08:00:23;6.30;99.90
17813;DHT22;9030;50.792;8.320;2024-02-21T08:02:50;6.40;99.90
17813;DHT22;9030;50.792;8.320;2024-02-21T08:05:16;6.40;99.90
17813;DHT22;9030;50.792;8.320;2024-02-21T08:07:44;6.40;99.90
17813;DHT22;9030;50.792;8.320;2024-02-21T08:10:11;6.40;99.90
17813;DHT22;9030;50.792;8.320;2024-02-21T08:12:38;6.40;99.90
17813;DHT22;9030;50.792;8.320;2024-02-21T08:15:05;6.50;99.90
17813;DHT22;9030;50.792;8.320;2024-02-21T08:17:33;6.50;99.90
17813;DHT22;9030;50.792;8.320;2024-02-21T08:20:00;6.60;99.90
17813;DHT22;9030;50.792;8.320;2024-02-21T08:22:26;6.60;99.90
17813;DHT22;9030;50.792;8.320;2024-02-21T08:24:55;6.70;99.90
17813;DHT22;9030;50.792;8.320;2024-02-21T08:27:21;6.70;99.90
17813;DHT22;9030;50.792;8.320;2024-02-21T08:29:48;6.70;99.90
17813;DHT22;9030;50.792;8.320;2024-02-21T08:32:15;6.80;99.90
17813;DHT22;9030;50.792;8.320;2024-02-21T08:34:41;6.80;99.90
17813;DHT22;9030;50.792;8.320;2024-02-21T08:37:08;6.70;99.90
17813;DHT22;9030;50.792;8.320;2024-02-21T08:39:36;6.80;99.90
17813;DHT22;9030;50.792;8.320;2024-02-21T08:42:04;6.80;99.90
17813;DHT22;9030;50.792;8.320;2024-02-21T08:44:31;6.80;99.90
17813;DHT22;9030;50.792;8.320;2024-02-21T08:46:57;6.80;99.90
17813;DHT22;9030;50.792;8.320;2024-02-21T08:49:24;6.80;99.90
17813;DHT22;9030;50.792;8.320;2024-02-21T08:51:53;6.80;99.90
17813;DHT22;9030;50.792;8.320;2024-02-21T08:54:20;6.70;99.90
17813;DHT22;9030;50.792;8.320;2024-02-21T08:56:47;6.80;99.90
17813;DHT22;9030;50.792;8.320;2024-02-21T08:59:15;6.80;99.90
17813;DHT22;9030;50.792;8.320;2024-02-21T09:01:42;6.80;99.90
17813;DHT22;9030;50.792;8.320;2024-02-21T09:04:08;6.90;99.90
17813;DHT22;9030;50.792;8.320;2024-02-21T09:06:35;6.90;99.90
17813;DHT22;9030;50.792;8.320;2024-02-21T09:09:04;7.00;99.90
17813;DHT22;9030;50.792;8.320;2024-02-21T09:11:33;7.00;99.90
17813;DHT22;9030;50.792;8.320;2024-02-21T09:14:00;7.00;99.90
17813;DHT22;9030;50.792;8.320;2024-02-21T09:16:30;7.00;99.90
17813;DHT22;9030;50.792;8.320;2024-02-21T09:18:57;7.00;99.90
17813;DHT22;9030;50.792;8.320;2024-02-21T09:21:23;7.00;99.90
17813;DHT22;9030;50.792;8.320;2024-02-21T09:23:50;6.90;99.90
17813;DHT22;9030;50.792;8.320;2024-02-21T09:26:17;6.90;99.90
17813;DHT22;9030;50.792;8.320;2024-02-21T09:28:44;6.90;99.90
17813;DHT22;9030;50.792;8.320;2024-02-21T09:31:10;6.90;99.90
17813;DHT22;9030;50.792;8.320;2024-02-21T09:33:39;6.90;99.90
17813;DHT22;9030;50.792;8.320;2024-02-21T09:36:06;7.10;99.90
17813;DHT22;9030;50.792;8.320;2024-02-21T09:38:32;7.30;99.90
17813;DHT22;9030;50.792;8.320;2024-02-21T09:41:02;7.40;99.90
17813;DHT22;9030;50.792;8.320;2024-02-21T09:43:31;7.50;99.90
17813;DHT22;9030;50.792;8.320;2024-02-21T09:45:59;7.60;99.90
17813;DHT22;9030;50.792;8.320;2024-02-21T09:48:35;7.70;99.90
17813;DHT22;9030;50.792;8.320;2024-02-21T09:51:07;7.80;99.90
17813;DHT22;9030;50.792;8.320;2024-02-21T09:53:37;7.90;99.90
17813;DHT22;9030;50.792;8.320;2024-02-21T09:56:07;8.00;99.90
17813;DHT22;9030;50.792;8.320;2024-02-21T09:58:34;8.00;99.90
17813;DHT22;9030;50.792;8.320;2024-02-21T10:01:01;8.10;99.90
17813;DHT22;9030;50.792;8.320;2024-02-21T10:03:29;8.10;99.90
17813;DHT22;9030;50.792;8.320;2024-02-21T10:05:56;8.00;99.90
17813;DHT22;9030;50.792;8.320;2024-02-21T10:08:25;8.00;99.90
17813;DHT22;9030;50.792;8.320;2024-02-21T10:10:52;8.20;99.90
17813;DHT22;9030;50.792;8.320;2024-02-21T10:13:25;8.20;99.90
17813;DHT22;9030;50.792;8.320;2024-02-21T10:16:02;8.20;99.90
17813;DHT22;9030;50.792;8.320;2024-02-21T10:18:29;8.20;99.90
17813;DHT22;9030;50.792;8.320;2024-02-21T10:21:03;8.20;99.90
17813;DHT22;9030;50.792;8.320;2024-02-21T10:23:42;8.40;99.90
17813;DHT22;9030;50.792;8.320;2024-02-21T10:26:09;8.60;99.90
17813;DHT22;9030;50.792;8.320;2024-02-21T10:28:37;8.60;99.90
17813;DHT22;9030;50.792;8.320;2024-02-21T10:31:07;8.70;99.90
17813;DHT22;9030;50.792;8.320;2024-02-21T10:33:34;8.70;99.90
17813;DHT22;9030;50.792;8.320;2024-02-21T10:36:07;8.70;99.90
17813;DHT22;9030;50.792;8.320;2024-02-21T10:38:36;8.70;99.90
17813;DHT22;9030;50.792;8.320;2024-02-21T10:41:04;8.70;99.90
17813;DHT22;9030;50.792;8.320;2024-02-21T10:43:37;8.80;99.90
17813;DHT22;9030;50.792;8.320;2024-02-21T10:46:05;8.80;99.90
17813;DHT22;9030;50.792;8.320;2024-02-21T10:48:41;9.00;99.90
17813;DHT22;9030;50.792;8.320;2024-02-21T10:51:14;8.80;99.90
17813;DHT22;9030;50.792;8.320;2024-02-21T10:53:44;8.80;99.90
17813;DHT22;9030;50.792;8.320;2024-02-21T10:56:21;8.90;99.90
17813;DHT22;9030;50.792;8.320;2024-02-21T10:58:49;9.10;99.90
17813;DHT22;9030;50.792;8.320;2024-02-21T11:01:18;9.30;99.90
17813;DHT22;9030;50.792;8.320;2024-02-21T11:03:46;9.50;99.90
17813;DHT22;9030;50.792;8.320;2024-02-21T11:06:14;9.50;99.90
17813;DHT22;9030;50.792;8.320;2024-02-21T11:08:41;9.50;99.90
17813;DHT22;9030;50.792;8.320;2024-02-21T11:11:08;9.70;99.90
17813;DHT22;9030;50.792;8.320;2024-02-21T11:13:37;9.80;99.90
17813;DHT22;9030;50.792;8.320;2024-02-21T11:16:08;9.50;99.90
17813;DHT22;9030;50.792;8.320;2024-02-21T11:18:36;9.50;99.90
17813;DHT22;9030;50.792;8.320;2024-02-21T11:21:03;9.40;99.90
17813;DHT22;9030;50.792;8.320;2024-02-21T11:23:30;9.40;99.90
17813;DHT22;9030;50.792;8.320;2024-02-21T11:26:05;9.40;99.90
17813;DHT22;9030;50.792;8.320;2024-02-21T11:28:32;9.40;99.90
17813;DHT22;9030;50.792;8.320;2024-02-21T11:31:11;9.30;99.90
17813;DHT22;9030;50.792;8.320;2024-02-21T11:33:40;9.10;99.90
17813;DHT22;9030;50.792;8.320;2024-02-21T11:36:08;9.00;99.90
17813;DHT22;9030;50.792;8.320;2024-02-21T11:38:35;9.00;99.90
17813;DHT22;9030;50.792;8.320;2024-02-21T11:41:02;9.10;99.90
17813;DHT22;9030;50.792;8.320;2024-02-21T11:43:28;9.10;99.90
17813;DHT22;9030;50.792;8.320;2024-02-21T11:45:59;9.20;99.90
17813;DHT22;9030;50.792;8.320;2024-02-21T11:48:27;9.10;99.90
17813;DHT22;9030;50.792;8.320;2024-02-21T11:50:54;9.20;99.90
17813;DHT22;9030;50.792;8.320;2024-02-21T11:53:21;9.20;99.90
17813;DHT22;9030;50.792;8.320;2024-02-21T11:55:49;9.20;99.90
17813;DHT22;9030;50.792;8.320;2024-02-21T11:58:16;9.10;99.90
17813;DHT22;9030;50.792;8.320;2024-02-21T12:00:42;9.00;99.90
17813;DHT22;9030;50.792;8.320;2024-02-21T12:03:09;9.10;99.90
17813;DHT22;9030;50.792;8.320;2024-02-21T12:05:37;9.10;99.90
17813;DHT22;9030;50.792;8.320;2024-02-21T12:08:04;9.10;99.90
17813;DHT22;9030;50.792;8.320;2024-02-21T12:10:31;9.20;99.90
17813;DHT22;9030;50.792;8.320;2024-02-21T12:13:05;9.20;99.90
17813;DHT22;9030;50.792;8.320;2024-02-21T12:15:32;9.10;99.90
17813;DHT22;9030;50.792;8.320;2024-02-21T12:17:59;9.10;99.90
17813;DHT22;9030;50.792;8.320;2024-02-21T12:20:26;8.60;99.90
17813;DHT22;9030;50.792;8.320;2024-02-21T12:22:54;8.70;99.90
17813;DHT22;9030;50.792;8.320;2024-02-21T12:25:22;8.80;99.90
17813;DHT22;9030;50.792;8.320;2024-02-21T12:27:51;8.70;99.90
17813;DHT22;9030;50.792;8.320;2024-02-21T12:30:18;8.90;99.90
17813;DHT22;9030;50.792;8.320;2024-02-21T12:32:45;9.00;99.90
17813;DHT22;9030;50.792;8.320;2024-02-21T12:35:12;9.20;99.90
17813;DHT22;9030;50.792;8.320;2024-02-21T12:37:38;9.10;99.90
17813;DHT22;9030;50.792;8.320;2024-02-21T12:40:08;9.20;99.90
17813;DHT22;9030;50.792;8.320;2024-02-21T12:42:36;9.30;99.90
17813;DHT22;9030;50.792;8.320;2024-02-21T12:45:03;9.20;99.90
17813;DHT22;9030;50.792;8.320;2024-02-21T12:47:30;9.10;99.90
17813;DHT22;9030;50.792;8.320;2024-02-21T12:49:57;9.20;99.90
17813;DHT22;9030;50.792;8.320;2024-02-21T12:52:23;9.40;99.90
17813;DHT22;9030;50.792;8.320;2024-02-21T12:54:50;9.30;99.90
17813;DHT22;9030;50.792;8.320;2024-02-21T12:57:18;9.50;99.90
17813;DHT22;9030;50.792;8.320;2024-02-21T12:59:45;9.40;99.90
17813;DHT22;9030;50.792;8.320;2024-02-21T13:02:11;9.30;99.90
17813;DHT22;9030;50.792;8.320;2024-02-21T13:04:38;9.20;99.90
17813;DHT22;9030;50.792;8.320;2024-02-21T13:07:06;9.20;99.90
17813;DHT22;9030;50.792;8.320;2024-02-21T13:09:33;8.90;99.90
17813;DHT22;9030;50.792;8.320;2024-02-21T13:12:00;8.90;99.90
17813;DHT22;9030;50.792;8.320;2024-02-21T13:14:29;8.90;99.90
17813;DHT22;9030;50.792;8.320;2024-02-21T13:16:58;8.90;99.90
17813;DHT22;9030;50.792;8.320;2024-02-21T13:19:25;9.10;99.90
17813;DHT22;9030;50.792;8.320;2024-02-21T13:21:51;9.10;99.90
17813;DHT22;9030;50.792;8.320;2024-02-21T13:24:18;9.10;99.90
17813;DHT22;9030;50.792;8.320;2024-02-21T13:26:44;9.30;99.90
17813;DHT22;9030;50.792;8.320;2024-02-21T13:29:11;9.30;99.90
17813;DHT22;9030;50.792;8.320;2024-02-21T13:31:39;9.30;99.90
17813;DHT22;9030;50.792;8.320;2024-02-21T13:34:06;9.30;99.90
17813;DHT22;9030;50.792;8.320;2024-02-21T13:36:34;9.40;99.90
17813;DHT22;9030;50.792;8.320;2024-02-21T13:39:00;9.50;99.90
17813;DHT22;9030;50.792;8.320;2024-02-21T13:41:30;9.50;99.90
17813;DHT22;9030;50.792;8.320;2024-02-21T13:43:57;9.40;99.90
17813;DHT22;9030;50.792;8.320;2024-02-21T13:46:22;9.30;99.90
17813;DHT22;9030;50.792;8.320;2024-02-21T13:48:51;9.40;99.90
17813;DHT22;9030;50.792;8.320;2024-02-21T13:51:19;9.40;99.90
17813;DHT22;9030;50.792;8.320;2024-02-21T13:53:45;9.30;99.90
17813;DHT22;9030;50.792;8.320;2024-02-21T13:56:12;9.40;99.90
17813;DHT22;9030;50.792;8.320;2024-02-21T13:58:38;9.40;99.90
17813;DHT22;9030;50.792;8.320;2024-02-21T14:01:05;9.30;99.90
17813;DHT22;9030;50.792;8.320;2024-02-21T14:03:32;9.40;99.90
17813;DHT22;9030;50.792;8.320;2024-02-21T14:05:59;9.30;99.90
17813;DHT22;9030;50.792;8.320;2024-02-21T14:08:26;9.30;99.90
17813;DHT22;9030;50.792;8.320;2024-02-21T14:10:53;9.30;99.90
17813;DHT22;9030;50.792;8.320;2024-02-21T14:13:21;9.40;99.90
17813;DHT22;9030;50.792;8.320;2024-02-21T14:15:47;9.40;99.90
17813;DHT22;9030;50.792;8.320;2024-02-21T14:18:15;9.40;99.90
17813;DHT22;9030;50.792;8.320;2024-02-21T14:20:43;9.40;99.90
17813;DHT22;9030;50.792;8.320;2024-02-21T14:23:10;9.30;99.90
17813;DHT22;9030;50.792;8.320;2024-02-21T14:25:38;9.30;99.90
17813;DHT22;9030;50.792;8.320;2024-02-21T14:28:07;9.20;99.90
17813;DHT22;9030;50.792;8.320;2024-02-21T14:30:35;9.30;99.90
17813;DHT22;9030;50.792;8.320;2024-02-21T14:33:02;9.30;99.90
17813;DHT22;9030;50.792;8.320;2024-02-21T14:35:29;9.40;99.90
17813;DHT22;9030;50.792;8.320;2024-02-21T14:37:56;9.30;99.90
17813;DHT22;9030;50.792;8.320;2024-02-21T14:40:24;9.20;99.90
17813;DHT22;9030;50.792;8.320;2024-02-21T14:42:51;9.30;99.90
17813;DHT22;9030;50.792;8.320;2024-02-21T14:45:18;9.30;99.90
17813;DHT22;9030;50.792;8.320;2024-02-21T14:47:45;9.20;99.90
17813;DHT22;9030;50.792;8.320;2024-02-21T14:50:12;9.20;99.90
17813;DHT22;9030;50.792;8.320;2024-02-21T14:52:38;9.20;99.90
17813;DHT22;9030;50.792;8.320;2024-02-21T14:55:06;9.20;99.90
17813;DHT22;9030;50.792;8.320;2024-02-21T14:57:34;9.20;99.90
17813;DHT22;9030;50.792;8.320;2024-02-21T15:00:01;9.30;99.90
17813;DHT22;9030;50.792;8.320;2024-02-21T15:02:33;9.20;99.90
17813;DHT22;9030;50.792;8.320;2024-02-21T15:05:00;9.20;99.90
17813;DHT22;9030;50.792;8.320;2024-02-21T15:07:27;9.20;99.90
17813;DHT22;9030;50.792;8.320;2024-02-21T15:09:54;9.20;99.90
17813;DHT22;9030;50.792;8.320;2024-02-21T15:12:22;9.20;99.90
17813;DHT22;9030;50.792;8.320;2024-02-21T15:14:50;9.10;99.90
17813;DHT22;9030;50.792;8.320;2024-02-21T15:17:17;9.00;99.90
17813;DHT22;9030;50.792;8.320;2024-02-21T15:19:44;9.00;99.90
17813;DHT22;9030;50.792;8.320;2024-02-21T15:22:13;9.00;99.90
17813;DHT22;9030;50.792;8.320;2024-02-21T15:24:40;8.90;99.90
17813;DHT22;9030;50.792;8.320;2024-02-21T15:27:08;8.90;99.90
17813;DHT22;9030;50.792;8.320;2024-02-21T15:29:35;8.90;99.90
17813;DHT22;9030;50.792;8.320;2024-02-21T15:32:04;8.90;99.90
17813;DHT22;9030;50.792;8.320;2024-02-21T15:34:31;8.80;99.90
17813;DHT22;9030;50.792;8.320;2024-02-21T15:36:57;8.80;99.90
17813;DHT22;9030;50.792;8.320;2024-02-21T15:39:24;8.80;99.90
17813;DHT22;9030;50.792;8.320;2024-02-21T15:41:52;8.70;99.90
17813;DHT22;9030;50.792;8.320;2024-02-21T15:44:18;8.70;99.90
17813;DHT22;9030;50.792;8.320;2024-02-21T15:46:46;8.70;99.90
17813;DHT22;9030;50.792;8.320;2024-02-21T15:49:14;8.70;99.90
17813;DHT22;9030;50.792;8.320;2024-02-21T15:51:41;8.70;99.90
17813;DHT22;9030;50.792;8.320;2024-02-21T15:54:08;8.70;99.90
17813;DHT22;9030;50.792;8.320;2024-02-21T15:56:35;8.70;99.90
17813;DHT22;9030;50.792;8.320;2024-02-21T15:59:01;8.60;99.90
17813;DHT22;9030;50.792;8.320;2024-02-21T16:01:29;8.60;99.90
17813;DHT22;9030;50.792;8.320;2024-02-21T16:03:58;8.60;99.90